sensor_id;sensor_type;location;lat;lon;timestamp;P1;durP1;ratioP1;P2;durP2;ratioP2
211;SDS011;16228;48.800;9.002;2023-07-22T00:00:32;4.80;;;4.30;;
211;SDS011;16228;48.800;9.002;2023-07-22T00:02:59;5.40;;;3.70;;
211;SDS011;16228;48.800;9.002;2023-07-22T00:05:26;4.30;;;4.00;;
211;SDS011;16228;48.800;9.002;2023-07-22T00:07:54;4.60;;;4.10;;
211;SDS011;16228;48.800;9.002;2023-07-22T00:10:21;4.90;;;4.40;;
211;SDS011;16228;48.800;9.002;2023-07-22T00:12:50;4.20;;;3.80;;
211;SDS011;16228;48.800;9.002;2023-07-22T00:15:17;5.03;;;4.53;;
211;SDS011;16228;48.800;9.002;2023-07-22T00:17:45;4.57;;;4.10;;
211;SDS011;16228;48.800;9.002;2023-07-22T00:20:13;5.50;;;4.17;;
211;SDS011;16228;48.800;9.002;2023-07-22T00:22:41;7.80;;;4.70;;
211;SDS011;16228;48.800;9.002;2023-07-22T00:25:09;4.67;;;4.27;;
211;SDS011;16228;48.800;9.002;2023-07-22T00:27:37;5.00;;;4.60;;
211;SDS011;16228;48.800;9.002;2023-07-22T00:30:07;6.47;;;5.87;;
211;SDS011;16228;48.800;9.002;2023-07-22T00:32:36;7.30;;;4.63;;
211;SDS011;16228;48.800;9.002;2023-07-22T00:35:03;4.67;;;4.27;;
211;SDS011;16228;48.800;9.002;2023-07-22T00:37:31;5.50;;;4.77;;
211;SDS011;16228;48.800;9.002;2023-07-22T00:39:58;5.13;;;4.63;;
211;SDS011;16228;48.800;9.002;2023-07-22T00:42:31;6.03;;;5.00;;
211;SDS011;16228;48.800;9.002;2023-07-22T00:44:58;5.00;;;4.53;;
211;SDS011;16228;48.800;9.002;2023-07-22T00:47:27;5.03;;;4.57;;
211;SDS011;16228;48.800;9.002;2023-07-22T00:49:54;5.33;;;4.63;;
211;SDS011;16228;48.800;9.002;2023-07-22T00:52:22;4.73;;;4.23;;
211;SDS011;16228;48.800;9.002;2023-07-22T00:54:49;5.80;;;5.20;;
211;SDS011;16228;48.800;9.002;2023-07-22T00:57:16;5.37;;;4.87;;
211;SDS011;16228;48.800;9.002;2023-07-22T00:59:45;5.23;;;3.43;;
211;SDS011;16228;48.800;9.002;2023-07-22T01:02:12;4.93;;;4.47;;
211;SDS011;16228;48.800;9.002;2023-07-22T01:04:41;4.70;;;4.30;;
211;SDS011;16228;48.800;9.002;2023-07-22T01:07:08;6.60;;;4.37;;
211;SDS011;16228;48.800;9.002;2023-07-22T01:09:36;7.33;;;4.97;;
211;SDS011;16228;48.800;9.002;2023-07-22T01:12:04;7.10;;;4.50;;
211;SDS011;16228;48.800;9.002;2023-07-22T01:14:32;5.10;;;4.60;;
211;SDS011;16228;48.800;9.002;2023-07-22T01:17:00;5.77;;;5.27;;
211;SDS011;16228;48.800;9.002;2023-07-22T01:19:29;4.33;;;3.93;;
211;SDS011;16228;48.800;9.002;2023-07-22T01:21:57;5.03;;;4.53;;
211;SDS011;16228;48.800;9.002;2023-07-22T01:24:29;4.70;;;4.07;;
211;SDS011;16228;48.800;9.002;2023-07-22T01:26:56;6.17;;;5.37;;
211;SDS011;16228;48.800;9.002;2023-07-22T01:29:23;7.67;;;5.93;;
211;SDS011;16228;48.800;9.002;2023-07-22T01:31:51;7.00;;;5.27;;
211;SDS011;16228;48.800;9.002;2023-07-22T01:34:20;5.23;;;4.73;;
211;SDS011;16228;48.800;9.002;2023-07-22T01:36:49;5.37;;;4.87;;
211;SDS011;16228;48.800;9.002;2023-07-22T01:39:17;6.33;;;4.93;;
211;SDS011;16228;48.800;9.002;2023-07-22T01:41:46;4.90;;;4.50;;
211;SDS011;16228;48.800;9.002;2023-07-22T01:44:13;6.43;;;4.60;;
211;SDS011;16228;48.800;9.002;2023-07-22T01:46:40;5.73;;;5.23;;
211;SDS011;16228;48.800;9.002;2023-07-22T01:49:09;7.33;;;4.67;;
211;SDS011;16228;48.800;9.002;2023-07-22T01:51:38;5.93;;;4.17;;
211;SDS011;16228;48.800;9.002;2023-07-22T01:54:05;5.23;;;4.73;;
211;SDS011;16228;48.800;9.002;2023-07-22T01:56:34;5.00;;;4.50;;
211;SDS011;16228;48.800;9.002;2023-07-22T01:59:03;5.30;;;4.63;;
211;SDS011;16228;48.800;9.002;2023-07-22T02:01:30;6.57;;;4.60;;
211;SDS011;16228;48.800;9.002;2023-07-22T02:03:57;6.50;;;4.30;;
211;SDS011;16228;48.800;9.002;2023-07-22T02:06:26;6.40;;;4.50;;
211;SDS011;16228;48.800;9.002;2023-07-22T02:08:54;4.53;;;4.13;;
211;SDS011;16228;48.800;9.002;2023-07-22T02:11:21;5.20;;;4.47;;
211;SDS011;16228;48.800;9.002;2023-07-22T02:13:48;4.67;;;4.20;;
211;SDS011;16228;48.800;9.002;2023-07-22T02:16:16;6.10;;;4.93;;
211;SDS011;16228;48.800;9.002;2023-07-22T02:18:44;5.63;;;5.00;;
211;SDS011;16228;48.800;9.002;2023-07-22T02:21:11;7.20;;;5.30;;
211;SDS011;16228;48.800;9.002;2023-07-22T02:23:38;5.33;;;4.70;;
211;SDS011;16228;48.800;9.002;2023-07-22T02:26:05;5.00;;;4.43;;
211;SDS011;16228;48.800;9.002;2023-07-22T02:28:32;7.50;;;5.03;;
211;SDS011;16228;48.800;9.002;2023-07-22T02:31:00;5.50;;;5.00;;
211;SDS011;16228;48.800;9.002;2023-07-22T02:33:33;6.20;;;4.13;;
211;SDS011;16228;48.800;9.002;2023-07-22T02:36:00;5.83;;;5.07;;
211;SDS011;16228;48.800;9.002;2023-07-22T02:38:27;5.80;;;5.07;;
211;SDS011;16228;48.800;9.002;2023-07-22T02:40:54;5.80;;;5.13;;
211;SDS011;16228;48.800;9.002;2023-07-22T02:43:21;5.83;;;4.50;;
211;SDS011;16228;48.800;9.002;2023-07-22T02:45:48;5.97;;;4.83;;
211;SDS011;16228;48.800;9.002;2023-07-22T02:48:15;5.23;;;4.73;;
211;SDS011;16228;48.800;9.002;2023-07-22T02:50:44;7.77;;;6.23;;
211;SDS011;16228;48.800;9.002;2023-07-22T02:53:12;5.50;;;5.10;;
211;SDS011;16228;48.800;9.002;2023-07-22T02:55:39;6.17;;;4.87;;
211;SDS011;16228;48.800;9.002;2023-07-22T02:58:06;5.40;;;4.03;;
211;SDS011;16228;48.800;9.002;2023-07-22T03:00:33;4.83;;;4.33;;
211;SDS011;16228;48.800;9.002;2023-07-22T03:03:00;4.90;;;4.50;;
211;SDS011;16228;48.800;9.002;2023-07-22T03:05:28;4.50;;;4.10;;
211;SDS011;16228;48.800;9.002;2023-07-22T03:07:57;5.40;;;4.77;;
211;SDS011;16228;48.800;9.002;2023-07-22T03:10:25;7.43;;;6.13;;
211;SDS011;16228;48.800;9.002;2023-07-22T03:12:54;6.60;;;5.30;;
211;SDS011;16228;48.800;9.002;2023-07-22T03:15:22;7.10;;;5.37;;
211;SDS011;16228;48.800;9.002;2023-07-22T03:17:51;5.73;;;5.23;;
211;SDS011;16228;48.800;9.002;2023-07-22T03:20:18;4.57;;;4.17;;
211;SDS011;16228;48.800;9.002;2023-07-22T03:22:47;5.60;;;5.10;;
211;SDS011;16228;48.800;9.002;2023-07-22T03:25:15;5.70;;;5.20;;
211;SDS011;16228;48.800;9.002;2023-07-22T03:27:44;6.10;;;5.10;;
211;SDS011;16228;48.800;9.002;2023-07-22T03:30:13;5.70;;;5.20;;
211;SDS011;16228;48.800;9.002;2023-07-22T03:32:41;5.50;;;5.00;;
211;SDS011;16228;48.800;9.002;2023-07-22T03:35:09;6.70;;;5.20;;
211;SDS011;16228;48.800;9.002;2023-07-22T03:37:37;6.80;;;6.10;;
211;SDS011;16228;48.800;9.002;2023-07-22T03:40:05;4.97;;;4.50;;
211;SDS011;16228;48.800;9.002;2023-07-22T03:42:38;6.37;;;5.80;;
211;SDS011;16228;48.800;9.002;2023-07-22T03:45:05;6.23;;;5.63;;
211;SDS011;16228;48.800;9.002;2023-07-22T03:47:34;5.40;;;4.90;;
211;SDS011;16228;48.800;9.002;2023-07-22T03:50:01;6.03;;;5.53;;
211;SDS011;16228;48.800;9.002;2023-07-22T03:52:28;5.00;;;4.50;;
211;SDS011;16228;48.800;9.002;2023-07-22T03:54:56;8.07;;;5.93;;
211;SDS011;16228;48.800;9.002;2023-07-22T03:57:25;5.57;;;4.97;;
211;SDS011;16228;48.800;9.002;2023-07-22T03:59:54;4.90;;;4.40;;
211;SDS011;16228;48.800;9.002;2023-07-22T04:02:22;5.90;;;4.80;;
211;SDS011;16228;48.800;9.002;2023-07-22T04:04:50;4.83;;;4.13;;
211;SDS011;16228;48.800;9.002;2023-07-22T04:07:18;5.37;;;3.77;;
211;SDS011;16228;48.800;9.002;2023-07-22T04:09:45;5.13;;;4.43;;
211;SDS011;16228;48.800;9.002;2023-07-22T04:12:12;5.80;;;5.27;;
211;SDS011;16228;48.800;9.002;2023-07-22T04:14:39;6.30;;;5.70;;
211;SDS011;16228;48.800;9.002;2023-07-22T04:17:08;5.63;;;4.47;;
211;SDS011;16228;48.800;9.002;2023-07-22T04:19:35;7.60;;;5.33;;
211;SDS011;16228;48.800;9.002;2023-07-22T04:22:02;6.43;;;4.83;;
211;SDS011;16228;48.800;9.002;2023-07-22T04:24:30;5.07;;;4.27;;
211;SDS011;16228;48.800;9.002;2023-07-22T04:26:57;5.77;;;4.83;;
211;SDS011;16228;48.800;9.002;2023-07-22T04:29:24;4.67;;;4.23;;
211;SDS011;16228;48.800;9.002;2023-07-22T04:31:56;4.87;;;4.47;;
211;SDS011;16228;48.800;9.002;2023-07-22T04:34:25;6.60;;;6.07;;
211;SDS011;16228;48.800;9.002;2023-07-22T04:36:54;5.53;;;5.03;;
211;SDS011;16228;48.800;9.002;2023-07-22T04:39:21;4.87;;;4.47;;
211;SDS011;16228;48.800;9.002;2023-07-22T04:41:49;4.80;;;4.33;;
211;SDS011;16228;48.800;9.002;2023-07-22T04:44:17;4.57;;;4.17;;
211;SDS011;16228;48.800;9.002;2023-07-22T04:46:44;4.33;;;3.93;;
211;SDS011;16228;48.800;9.002;2023-07-22T04:49:12;7.07;;;5.50;;
211;SDS011;16228;48.800;9.002;2023-07-22T04:51:44;4.80;;;3.70;;
211;SDS011;16228;48.800;9.002;2023-07-22T04:54:12;5.70;;;4.27;;
211;SDS011;16228;48.800;9.002;2023-07-22T04:56:40;4.23;;;3.80;;
211;SDS011;16228;48.800;9.002;2023-07-22T04:59:07;5.10;;;4.60;;
211;SDS011;16228;48.800;9.002;2023-07-22T05:01:35;6.30;;;4.93;;
211;SDS011;16228;48.800;9.002;2023-07-22T05:04:02;5.53;;;4.80;;
211;SDS011;16228;48.800;9.002;2023-07-22T05:06:30;4.60;;;4.20;;
211;SDS011;16228;48.800;9.002;2023-07-22T05:08:58;5.73;;;5.23;;
211;SDS011;16228;48.800;9.002;2023-07-22T05:11:26;5.87;;;5.37;;
211;SDS011;16228;48.800;9.002;2023-07-22T05:13:53;5.77;;;4.53;;
211;SDS011;16228;48.800;9.002;2023-07-22T05:16:20;5.10;;;4.70;;
211;SDS011;16228;48.800;9.002;2023-07-22T05:18:47;6.37;;;5.87;;
211;SDS011;16228;48.800;9.002;2023-07-22T05:21:14;6.60;;;6.13;;
211;SDS011;16228;48.800;9.002;2023-07-22T05:23:41;5.63;;;5.23;;
211;SDS011;16228;48.800;9.002;2023-07-22T05:26:10;6.53;;;5.93;;
211;SDS011;16228;48.800;9.002;2023-07-22T05:28:37;5.63;;;5.13;;
211;SDS011;16228;48.800;9.002;2023-07-22T05:31:04;5.80;;;5.40;;
211;SDS011;16228;48.800;9.002;2023-07-22T05:33:31;5.13;;;4.73;;
211;SDS011;16228;48.800;9.002;2023-07-22T05:35:58;5.70;;;5.20;;
211;SDS011;16228;48.800;9.002;2023-07-22T05:38:26;6.57;;;5.90;;
211;SDS011;16228;48.800;9.002;2023-07-22T05:40:53;5.70;;;5.30;;
211;SDS011;16228;48.800;9.002;2023-07-22T05:43:22;4.03;;;3.67;;
211;SDS011;16228;48.800;9.002;2023-07-22T05:45:49;3.40;;;2.47;;
211;SDS011;16228;48.800;9.002;2023-07-22T05:48:16;3.20;;;2.43;;
211;SDS011;16228;48.800;9.002;2023-07-22T05:50:43;2.77;;;2.40;;
211;SDS011;16228;48.800;9.002;2023-07-22T05:53:11;3.03;;;2.00;;
211;SDS011;16228;48.800;9.002;2023-07-22T05:55:39;3.33;;;2.33;;
211;SDS011;16228;48.800;9.002;2023-07-22T05:58:06;2.93;;;2.47;;
211;SDS011;16228;48.800;9.002;2023-07-22T06:00:34;3.67;;;2.10;;
211;SDS011;16228;48.800;9.002;2023-07-22T06:03:03;2.20;;;2.00;;
211;SDS011;16228;48.800;9.002;2023-07-22T06:05:30;3.63;;;2.20;;
211;SDS011;16228;48.800;9.002;2023-07-22T06:07:57;3.10;;;1.93;;
211;SDS011;16228;48.800;9.002;2023-07-22T06:10:24;3.10;;;2.00;;
211;SDS011;16228;48.800;9.002;2023-07-22T06:12:51;1.80;;;1.70;;
211;SDS011;16228;48.800;9.002;2023-07-22T06:15:18;2.20;;;1.80;;
211;SDS011;16228;48.800;9.002;2023-07-22T06:17:47;1.73;;;1.63;;
211;SDS011;16228;48.800;9.002;2023-07-22T06:20:14;2.20;;;1.80;;
211;SDS011;16228;48.800;9.002;2023-07-22T06:22:41;3.00;;;2.27;;
211;SDS011;16228;48.800;9.002;2023-07-22T06:25:09;2.63;;;2.43;;
211;SDS011;16228;48.800;9.002;2023-07-22T06:27:36;3.13;;;2.07;;
211;SDS011;16228;48.800;9.002;2023-07-22T06:30:04;2.47;;;1.90;;
211;SDS011;16228;48.800;9.002;2023-07-22T06:32:33;1.97;;;1.73;;
211;SDS011;16228;48.800;9.002;2023-07-22T06:35:02;3.13;;;2.00;;
211;SDS011;16228;48.800;9.002;2023-07-22T06:37:30;2.03;;;1.83;;
211;SDS011;16228;48.800;9.002;2023-07-22T06:39:57;3.77;;;2.37;;
211;SDS011;16228;48.800;9.002;2023-07-22T06:42:24;4.13;;;2.13;;
211;SDS011;16228;48.800;9.002;2023-07-22T06:44:52;1.90;;;1.70;;
211;SDS011;16228;48.800;9.002;2023-07-22T06:47:19;3.03;;;2.13;;
211;SDS011;16228;48.800;9.002;2023-07-22T06:49:47;2.13;;;1.80;;
211;SDS011;16228;48.800;9.002;2023-07-22T06:52:15;2.77;;;2.03;;
211;SDS011;16228;48.800;9.002;2023-07-22T06:54:42;2.60;;;2.10;;
211;SDS011;16228;48.800;9.002;2023-07-22T06:57:11;2.30;;;1.77;;
211;SDS011;16228;48.800;9.002;2023-07-22T06:59:38;2.27;;;1.70;;
211;SDS011;16228;48.800;9.002;2023-07-22T07:02:05;1.87;;;1.77;;
211;SDS011;16228;48.800;9.002;2023-07-22T07:04:33;1.80;;;1.70;;
211;SDS011;16228;48.800;9.002;2023-07-22T07:07:00;2.37;;;1.50;;
211;SDS011;16228;48.800;9.002;2023-07-22T07:09:29;2.27;;;1.80;;
211;SDS011;16228;48.800;9.002;2023-07-22T07:11:56;2.47;;;1.80;;
211;SDS011;16228;48.800;9.002;2023-07-22T07:14:23;2.65;;;1.67;;
211;SDS011;16228;48.800;9.002;2023-07-22T07:16:50;2.22;;;1.60;;
211;SDS011;16228;48.800;9.002;2023-07-22T07:19:18;2.45;;;1.80;;
211;SDS011;16228;48.800;9.002;2023-07-22T07:21:45;1.90;;;1.50;;
211;SDS011;16228;48.800;9.002;2023-07-22T07:24:12;3.67;;;2.10;;
211;SDS011;16228;48.800;9.002;2023-07-22T07:26:41;1.70;;;1.55;;
211;SDS011;16228;48.800;9.002;2023-07-22T07:29:08;2.33;;;1.52;;
211;SDS011;16228;48.800;9.002;2023-07-22T07:31:36;2.42;;;2.08;;
211;SDS011;16228;48.800;9.002;2023-07-22T07:34:03;2.13;;;2.00;;
211;SDS011;16228;48.800;9.002;2023-07-22T07:36:31;1.70;;;1.60;;
211;SDS011;16228;48.800;9.002;2023-07-22T07:38:58;2.95;;;1.90;;
211;SDS011;16228;48.800;9.002;2023-07-22T07:41:25;1.88;;;1.77;;
211;SDS011;16228;48.800;9.002;2023-07-22T07:43:54;1.70;;;1.60;;
211;SDS011;16228;48.800;9.002;2023-07-22T07:46:22;3.30;;;1.65;;
211;SDS011;16228;48.800;9.002;2023-07-22T07:48:51;2.83;;;1.73;;
211;SDS011;16228;48.800;9.002;2023-07-22T07:51:20;7.45;;;1.55;;
211;SDS011;16228;48.800;9.002;2023-07-22T07:53:49;2.25;;;1.45;;
211;SDS011;16228;48.800;9.002;2023-07-22T07:56:17;1.33;;;1.23;;
211;SDS011;16228;48.800;9.002;2023-07-22T07:58:45;1.80;;;1.70;;
211;SDS011;16228;48.800;9.002;2023-07-22T08:01:15;1.95;;;1.70;;
211;SDS011;16228;48.800;9.002;2023-07-22T08:03:43;1.60;;;1.50;;
211;SDS011;16228;48.800;9.002;2023-07-22T08:06:14;1.70;;;1.60;;
211;SDS011;16228;48.800;9.002;2023-07-22T08:08:42;1.42;;;1.33;;
211;SDS011;16228;48.800;9.002;2023-07-22T08:11:10;1.50;;;1.40;;
211;SDS011;16228;48.800;9.002;2023-07-22T08:13:39;1.45;;;1.35;;
211;SDS011;16228;48.800;9.002;2023-07-22T08:16:07;1.75;;;1.33;;
211;SDS011;16228;48.800;9.002;2023-07-22T08:18:36;1.58;;;1.42;;
211;SDS011;16228;48.800;9.002;2023-07-22T08:21:04;1.95;;;1.42;;
211;SDS011;16228;48.800;9.002;2023-07-22T08:23:33;1.67;;;1.48;;
211;SDS011;16228;48.800;9.002;2023-07-22T08:26:01;1.80;;;1.63;;
211;SDS011;16228;48.800;9.002;2023-07-22T08:28:30;1.77;;;1.67;;
211;SDS011;16228;48.800;9.002;2023-07-22T08:30:58;1.20;;;1.10;;
211;SDS011;16228;48.800;9.002;2023-07-22T08:33:26;1.95;;;1.85;;
211;SDS011;16228;48.800;9.002;2023-07-22T08:35:55;2.63;;;1.40;;
211;SDS011;16228;48.800;9.002;2023-07-22T08:38:22;2.25;;;1.40;;
211;SDS011;16228;48.800;9.002;2023-07-22T08:40:50;2.78;;;1.55;;
211;SDS011;16228;48.800;9.002;2023-07-22T08:43:19;1.45;;;1.35;;
211;SDS011;16228;48.800;9.002;2023-07-22T08:45:47;1.25;;;1.20;;
211;SDS011;16228;48.800;9.002;2023-07-22T08:48:15;1.60;;;1.50;;
211;SDS011;16228;48.800;9.002;2023-07-22T08:50:44;2.70;;;1.40;;
211;SDS011;16228;48.800;9.002;2023-07-22T08:53:14;2.30;;;1.80;;
211;SDS011;16228;48.800;9.002;2023-07-22T08:55:41;1.70;;;1.60;;
211;SDS011;16228;48.800;9.002;2023-07-22T08:58:10;2.03;;;1.30;;
211;SDS011;16228;48.800;9.002;2023-07-22T09:00:38;2.80;;;1.63;;
211;SDS011;16228;48.800;9.002;2023-07-22T09:03:06;1.90;;;1.80;;
211;SDS011;16228;48.800;9.002;2023-07-22T09:05:34;1.63;;;1.40;;
211;SDS011;16228;48.800;9.002;2023-07-22T09:08:03;1.63;;;1.53;;
211;SDS011;16228;48.800;9.002;2023-07-22T09:10:33;4.90;;;1.53;;
211;SDS011;16228;48.800;9.002;2023-07-22T09:13:01;1.73;;;1.63;;
211;SDS011;16228;48.800;9.002;2023-07-22T09:15:29;1.30;;;1.20;;
211;SDS011;16228;48.800;9.002;2023-07-22T09:17:58;2.92;;;1.73;;
211;SDS011;16228;48.800;9.002;2023-07-22T09:20:28;3.40;;;1.45;;
211;SDS011;16228;48.800;9.002;2023-07-22T09:22:57;2.13;;;1.40;;
211;SDS011;16228;48.800;9.002;2023-07-22T09:25:26;1.48;;;1.38;;
211;SDS011;16228;48.800;9.002;2023-07-22T09:27:57;1.70;;;1.60;;
211;SDS011;16228;48.800;9.002;2023-07-22T09:30:26;1.25;;;1.00;;
211;SDS011;16228;48.800;9.002;2023-07-22T09:32:55;2.00;;;1.30;;
211;SDS011;16228;48.800;9.002;2023-07-22T09:35:24;1.33;;;1.15;;
211;SDS011;16228;48.800;9.002;2023-07-22T09:37:53;1.10;;;1.00;;
211;SDS011;16228;48.800;9.002;2023-07-22T09:40:21;1.40;;;1.30;;
211;SDS011;16228;48.800;9.002;2023-07-22T09:42:49;1.42;;;1.30;;
211;SDS011;16228;48.800;9.002;2023-07-22T09:45:19;1.90;;;1.58;;
211;SDS011;16228;48.800;9.002;2023-07-22T09:47:50;1.70;;;1.60;;
211;SDS011;16228;48.800;9.002;2023-07-22T09:50:19;1.75;;;1.65;;
211;SDS011;16228;48.800;9.002;2023-07-22T09:52:48;1.40;;;1.33;;
211;SDS011;16228;48.800;9.002;2023-07-22T09:55:17;1.30;;;1.20;;
211;SDS011;16228;48.800;9.002;2023-07-22T09:57:46;2.85;;;1.60;;
211;SDS011;16228;48.800;9.002;2023-07-22T10:00:16;1.70;;;1.60;;
211;SDS011;16228;48.800;9.002;2023-07-22T10:02:46;1.45;;;1.35;;
211;SDS011;16228;48.800;9.002;2023-07-22T10:05:15;2.28;;;1.50;;
211;SDS011;16228;48.800;9.002;2023-07-22T10:07:44;1.50;;;1.40;;
211;SDS011;16228;48.800;9.002;2023-07-22T10:10:12;1.60;;;1.50;;
211;SDS011;16228;48.800;9.002;2023-07-22T10:12:42;1.60;;;1.50;;
211;SDS011;16228;48.800;9.002;2023-07-22T10:15:10;1.37;;;1.27;;
211;SDS011;16228;48.800;9.002;2023-07-22T10:17:42;1.80;;;1.70;;
211;SDS011;16228;48.800;9.002;2023-07-22T10:20:10;1.53;;;1.40;;
211;SDS011;16228;48.800;9.002;2023-07-22T10:22:40;1.83;;;1.73;;
211;SDS011;16228;48.800;9.002;2023-07-22T10:25:10;1.43;;;1.33;;
211;SDS011;16228;48.800;9.002;2023-07-22T10:27:38;1.60;;;1.50;;
211;SDS011;16228;48.800;9.002;2023-07-22T10:30:08;2.57;;;1.60;;
211;SDS011;16228;48.800;9.002;2023-07-22T10:32:37;2.43;;;1.50;;
211;SDS011;16228;48.800;9.002;2023-07-22T10:35:09;1.90;;;1.53;;
211;SDS011;16228;48.800;9.002;2023-07-22T10:37:37;1.60;;;1.48;;
211;SDS011;16228;48.800;9.002;2023-07-22T10:40:16;1.58;;;1.48;;
211;SDS011;16228;48.800;9.002;2023-07-22T10:42:56;1.40;;;1.30;;
211;SDS011;16228;48.800;9.002;2023-07-22T10:45:25;2.03;;;1.50;;
211;SDS011;16228;48.800;9.002;2023-07-22T10:48:00;1.75;;;1.35;;
211;SDS011;16228;48.800;9.002;2023-07-22T10:50:41;2.10;;;2.00;;
211;SDS011;16228;48.800;9.002;2023-07-22T10:53:10;1.80;;;1.70;;
211;SDS011;16228;48.800;9.002;2023-07-22T10:58:32;1.60;;;1.50;;
211;SDS011;16228;48.800;9.002;2023-07-22T11:04:04;1.58;;;1.48;;
211;SDS011;16228;48.800;9.002;2023-07-22T11:06:38;1.60;;;1.50;;
211;SDS011;16228;48.800;9.002;2023-07-22T11:09:33;1.98;;;1.88;;
211;SDS011;16228;48.800;9.002;2023-07-22T11:12:02;2.70;;;1.90;;
211;SDS011;16228;48.800;9.002;2023-07-22T11:14:31;2.27;;;2.03;;
211;SDS011;16228;48.800;9.002;2023-07-22T11:17:00;2.10;;;1.90;;
211;SDS011;16228;48.800;9.002;2023-07-22T11:19:29;2.37;;;2.10;;
211;SDS011;16228;48.800;9.002;2023-07-22T11:21:59;2.00;;;1.80;;
211;SDS011;16228;48.800;9.002;2023-07-22T11:24:27;2.38;;;1.70;;
211;SDS011;16228;48.800;9.002;2023-07-22T11:26:55;1.90;;;1.80;;
211;SDS011;16228;48.800;9.002;2023-07-22T11:29:22;2.00;;;1.70;;
211;SDS011;16228;48.800;9.002;2023-07-22T11:31:50;2.60;;;1.57;;
211;SDS011;16228;48.800;9.002;2023-07-22T11:34:18;2.13;;;1.80;;
211;SDS011;16228;48.800;9.002;2023-07-22T11:36:46;1.97;;;1.87;;
211;SDS011;16228;48.800;9.002;2023-07-22T11:39:16;1.70;;;1.60;;
211;SDS011;16228;48.800;9.002;2023-07-22T11:41:44;2.78;;;1.48;;
211;SDS011;16228;48.800;9.002;2023-07-22T11:44:14;2.40;;;1.35;;
211;SDS011;16228;48.800;9.002;2023-07-22T11:46:49;2.45;;;1.52;;
211;SDS011;16228;48.800;9.002;2023-07-22T11:49:26;1.27;;;1.17;;
211;SDS011;16228;48.800;9.002;2023-07-22T11:51:54;1.90;;;1.70;;
211;SDS011;16228;48.800;9.002;2023-07-22T11:54:24;1.40;;;1.30;;
211;SDS011;16228;48.800;9.002;2023-07-22T11:56:52;3.97;;;1.80;;
211;SDS011;16228;48.800;9.002;2023-07-22T11:59:36;1.95;;;1.48;;
211;SDS011;16228;48.800;9.002;2023-07-22T12:02:04;1.40;;;1.30;;
211;SDS011;16228;48.800;9.002;2023-07-22T12:04:32;1.50;;;1.40;;
211;SDS011;16228;48.800;9.002;2023-07-22T12:07:00;1.60;;;1.50;;
211;SDS011;16228;48.800;9.002;2023-07-22T12:09:30;2.35;;;2.15;;
211;SDS011;16228;48.800;9.002;2023-07-22T12:11:58;2.80;;;1.73;;
211;SDS011;16228;48.800;9.002;2023-07-22T12:14:33;3.80;;;2.33;;
211;SDS011;16228;48.800;9.002;2023-07-22T12:17:01;1.90;;;1.80;;
211;SDS011;16228;48.800;9.002;2023-07-22T12:19:28;2.03;;;1.93;;
211;SDS011;16228;48.800;9.002;2023-07-22T12:21:56;2.40;;;2.20;;
211;SDS011;16228;48.800;9.002;2023-07-22T12:24:23;2.10;;;1.90;;
211;SDS011;16228;48.800;9.002;2023-07-22T12:26:52;1.90;;;1.80;;
211;SDS011;16228;48.800;9.002;2023-07-22T12:29:19;4.90;;;2.40;;
211;SDS011;16228;48.800;9.002;2023-07-22T12:31:47;2.03;;;1.93;;
211;SDS011;16228;48.800;9.002;2023-07-22T12:34:14;2.30;;;2.10;;
211;SDS011;16228;48.800;9.002;2023-07-22T12:36:41;2.67;;;2.43;;
211;SDS011;16228;48.800;9.002;2023-07-22T12:39:09;2.00;;;1.83;;
211;SDS011;16228;48.800;9.002;2023-07-22T12:41:37;2.50;;;2.30;;
211;SDS011;16228;48.800;9.002;2023-07-22T12:44:06;2.60;;;2.37;;
211;SDS011;16228;48.800;9.002;2023-07-22T12:46:33;3.17;;;2.28;;
211;SDS011;16228;48.800;9.002;2023-07-22T12:49:00;2.33;;;2.22;;
211;SDS011;16228;48.800;9.002;2023-07-22T12:51:27;2.15;;;1.90;;
211;SDS011;16228;48.800;9.002;2023-07-22T12:53:54;1.83;;;1.73;;
211;SDS011;16228;48.800;9.002;2023-07-22T12:56:22;1.80;;;1.70;;
211;SDS011;16228;48.800;9.002;2023-07-22T12:58:49;2.25;;;2.05;;
211;SDS011;16228;48.800;9.002;2023-07-22T13:01:17;2.85;;;2.30;;
211;SDS011;16228;48.800;9.002;2023-07-22T13:03:45;3.42;;;2.33;;
211;SDS011;16228;48.800;9.002;2023-07-22T13:06:12;2.75;;;2.55;;
211;SDS011;16228;48.800;9.002;2023-07-22T13:08:39;2.95;;;2.55;;
211;SDS011;16228;48.800;9.002;2023-07-22T13:11:06;2.83;;;2.63;;
211;SDS011;16228;48.800;9.002;2023-07-22T13:13:33;4.68;;;2.88;;
211;SDS011;16228;48.800;9.002;2023-07-22T13:16:00;2.88;;;2.58;;
211;SDS011;16228;48.800;9.002;2023-07-22T13:18:29;3.03;;;2.55;;
211;SDS011;16228;48.800;9.002;2023-07-22T13:20:56;2.17;;;2.00;;
211;SDS011;16228;48.800;9.002;2023-07-22T13:23:23;2.72;;;2.35;;
211;SDS011;16228;48.800;9.002;2023-07-22T13:25:50;2.60;;;2.30;;
211;SDS011;16228;48.800;9.002;2023-07-22T13:28:18;2.92;;;2.65;;
211;SDS011;16228;48.800;9.002;2023-07-22T13:30:45;2.50;;;2.30;;
211;SDS011;16228;48.800;9.002;2023-07-22T13:33:12;3.15;;;2.95;;
211;SDS011;16228;48.800;9.002;2023-07-22T13:35:41;3.50;;;3.20;;
211;SDS011;16228;48.800;9.002;2023-07-22T13:38:08;2.25;;;2.05;;
211;SDS011;16228;48.800;9.002;2023-07-22T13:40:35;2.03;;;1.83;;
211;SDS011;16228;48.800;9.002;2023-07-22T13:43:02;2.83;;;2.63;;
211;SDS011;16228;48.800;9.002;2023-07-22T13:45:30;3.38;;;2.45;;
211;SDS011;16228;48.800;9.002;2023-07-22T13:47:57;2.40;;;2.20;;
211;SDS011;16228;48.800;9.002;2023-07-22T13:50:24;2.67;;;2.47;;
211;SDS011;16228;48.800;9.002;2023-07-22T13:52:52;2.93;;;2.20;;
211;SDS011;16228;48.800;9.002;2023-07-22T13:55:20;3.30;;;2.30;;
211;SDS011;16228;48.800;9.002;2023-07-22T13:57:47;2.33;;;2.13;;
211;SDS011;16228;48.800;9.002;2023-07-22T14:00:14;3.30;;;2.00;;
211;SDS011;16228;48.800;9.002;2023-07-22T14:02:42;2.20;;;2.00;;
211;SDS011;16228;48.800;9.002;2023-07-22T14:05:09;2.40;;;2.20;;
211;SDS011;16228;48.800;9.002;2023-07-22T14:07:36;2.53;;;2.07;;
211;SDS011;16228;48.800;9.002;2023-07-22T14:10:06;3.10;;;1.80;;
211;SDS011;16228;48.800;9.002;2023-07-22T14:12:34;2.20;;;2.00;;
211;SDS011;16228;48.800;9.002;2023-07-22T14:15:01;3.83;;;1.93;;
211;SDS011;16228;48.800;9.002;2023-07-22T14:17:30;2.53;;;2.30;;
211;SDS011;16228;48.800;9.002;2023-07-22T14:19:58;2.43;;;2.17;;
211;SDS011;16228;48.800;9.002;2023-07-22T14:22:25;3.33;;;2.30;;
211;SDS011;16228;48.800;9.002;2023-07-22T14:24:52;2.47;;;2.27;;
211;SDS011;16228;48.800;9.002;2023-07-22T14:27:21;3.00;;;2.60;;
211;SDS011;16228;48.800;9.002;2023-07-22T14:29:48;2.20;;;2.00;;
211;SDS011;16228;48.800;9.002;2023-07-22T14:32:15;2.80;;;2.60;;
211;SDS011;16228;48.800;9.002;2023-07-22T14:34:42;3.60;;;2.60;;
211;SDS011;16228;48.800;9.002;2023-07-22T14:37:10;2.60;;;2.40;;
211;SDS011;16228;48.800;9.002;2023-07-22T14:39:37;3.70;;;2.60;;
211;SDS011;16228;48.800;9.002;2023-07-22T14:42:04;2.87;;;2.50;;
211;SDS011;16228;48.800;9.002;2023-07-22T14:44:33;3.70;;;2.60;;
211;SDS011;16228;48.800;9.002;2023-07-22T14:47:00;3.27;;;2.40;;
211;SDS011;16228;48.800;9.002;2023-07-22T14:49:27;3.13;;;2.70;;
211;SDS011;16228;48.800;9.002;2023-07-22T14:51:55;2.63;;;2.43;;
211;SDS011;16228;48.800;9.002;2023-07-22T14:54:22;3.10;;;2.80;;
211;SDS011;16228;48.800;9.002;2023-07-22T14:56:49;3.90;;;3.17;;
211;SDS011;16228;48.800;9.002;2023-07-22T14:59:16;3.97;;;2.70;;
211;SDS011;16228;48.800;9.002;2023-07-22T15:01:45;3.30;;;2.60;;
211;SDS011;16228;48.800;9.002;2023-07-22T15:04:12;3.43;;;2.63;;
211;SDS011;16228;48.800;9.002;2023-07-22T15:06:39;3.33;;;2.67;;
211;SDS011;16228;48.800;9.002;2023-07-22T15:09:07;2.63;;;2.43;;
211;SDS011;16228;48.800;9.002;2023-07-22T15:11:34;3.33;;;2.50;;
211;SDS011;16228;48.800;9.002;2023-07-22T15:14:01;4.20;;;3.80;;
211;SDS011;16228;48.800;9.002;2023-07-22T15:16:29;5.53;;;4.50;;
211;SDS011;16228;48.800;9.002;2023-07-22T15:18:58;6.47;;;5.17;;
211;SDS011;16228;48.800;9.002;2023-07-22T15:21:25;5.60;;;4.73;;
211;SDS011;16228;48.800;9.002;2023-07-22T15:23:53;6.03;;;3.47;;
211;SDS011;16228;48.800;9.002;2023-07-22T15:26:20;5.43;;;4.93;;